createdAt,value
2022-11-10T00:00:49.850Z,29.70
2022-11-10T00:03:40.310Z,29.00
2022-11-10T00:06:27.436Z,30.50
2022-11-10T00:09:15.760Z,28.23
2022-11-10T00:12:04.737Z,28.42
2022-11-10T00:15:12.006Z,27.92
2022-11-10T00:18:01.869Z,28.27
2022-11-10T00:20:49.472Z,28.38
2022-11-10T00:23:37.104Z,27.92
2022-11-10T00:26:24.403Z,28.52
2022-11-10T00:29:12.864Z,27.23
2022-11-10T00:32:00.393Z,25.05
2022-11-10T00:34:47.493Z,27.05
2022-11-10T00:37:35.374Z,25.60
2022-11-10T00:40:22.990Z,26.27
2022-11-10T00:43:10.413Z,26.42
2022-11-10T00:45:58.826Z,27.25
2022-11-10T00:48:46.070Z,25.73
2022-11-10T00:51:32.973Z,27.15
2022-11-10T00:54:20.865Z,24.88
2022-11-10T00:57:08.076Z,25.08
2022-11-10T00:59:55.489Z,25.35
2022-11-10T01:02:43.843Z,27.25
2022-11-10T01:05:32.393Z,23.95
2022-11-10T01:08:19.442Z,26.08
2022-11-10T01:11:09.905Z,25.92
2022-11-10T01:13:58.804Z,26.88
2022-11-10T01:16:46.088Z,26.20
2022-11-10T01:19:34.526Z,24.05
2022-11-10T01:22:21.846Z,25.70
2022-11-10T01:25:10.047Z,24.65
2022-11-10T01:27:57.803Z,25.02
2022-11-10T01:30:45.029Z,26.75
2022-11-10T01:33:33.220Z,24.63
2022-11-10T01:36:21.774Z,24.65
2022-11-10T01:39:09.444Z,24.25
2022-11-10T01:41:56.719Z,24.38
2022-11-10T01:45:32.988Z,24.23
2022-11-10T01:48:31.371Z,24.58
2022-11-10T01:51:26.724Z,24.70
2022-11-10T01:54:20.394Z,24.98
2022-11-10T01:57:13.717Z,24.20
2022-11-10T02:00:01.101Z,25.17
2022-11-10T02:02:57.021Z,23.65
2022-11-10T02:05:45.618Z,24.73
2022-11-10T02:08:35.497Z,25.40
2022-11-10T02:11:23.895Z,24.52
2022-11-10T02:14:12.360Z,25.92
2022-11-10T02:17:00.126Z,25.17
2022-11-10T02:19:47.379Z,24.55
2022-11-10T02:22:35.821Z,24.38
2022-11-10T02:25:26.560Z,24.30
2022-11-10T02:28:13.514Z,24.20
2022-11-10T02:31:00.956Z,24.30
2022-11-10T02:33:48.415Z,24.63
2022-11-10T02:36:35.938Z,26.45
2022-11-10T02:39:24.161Z,25.88
2022-11-10T02:42:11.696Z,23.60
2022-11-10T02:45:00.002Z,25.48
2022-11-10T02:47:47.707Z,24.45
2022-11-10T02:50:35.339Z,25.00
2022-11-10T02:53:23.285Z,25.42
2022-11-10T02:56:12.005Z,24.85
2022-11-10T02:58:59.597Z,25.13
2022-11-10T03:01:46.756Z,24.30
2022-11-10T03:04:34.279Z,24.88
2022-11-10T03:07:21.486Z,25.92
2022-11-10T03:10:10.236Z,24.40
2022-11-10T03:13:01.944Z,25.73
2022-11-10T03:15:49.732Z,25.60
2022-11-10T03:18:37.024Z,27.65
2022-11-10T03:21:24.662Z,26.05
2022-11-10T03:24:12.268Z,26.33
2022-11-10T03:27:00.300Z,25.80
2022-11-10T03:29:48.841Z,25.25
2022-11-10T03:32:36.429Z,26.20
2022-11-10T03:35:23.545Z,24.13
2022-11-10T03:38:11.122Z,26.15
2022-11-10T03:41:18.117Z,25.27
2022-11-10T03:44:06.069Z,24.40
2022-11-10T03:46:54.269Z,25.00
2022-11-10T03:49:41.701Z,25.92
2022-11-10T03:52:29.372Z,24.63
2022-11-10T03:55:19.656Z,25.02
2022-11-10T03:58:06.695Z,25.30
2022-11-10T04:00:55.501Z,25.27
2022-11-10T04:03:47.435Z,24.88
2022-11-10T04:06:55.164Z,23.65
2022-11-10T04:09:42.509Z,26.23
2022-11-10T04:12:47.430Z,23.88
2022-11-10T04:15:43.395Z,24.88
2022-11-10T04:18:30.571Z,24.42
2022-11-10T04:21:18.820Z,24.55
2022-11-10T04:24:06.988Z,24.48
2022-11-10T04:26:54.220Z,25.85
2022-11-10T04:29:41.733Z,25.35
2022-11-10T04:32:28.762Z,24.80
2022-11-10T04:35:16.165Z,26.25
2022-11-10T04:38:04.477Z,24.98
2022-11-10T04:40:52.685Z,24.73
2022-11-10T04:43:40.808Z,30.10
2022-11-10T04:46:30.569Z,27.33
2022-11-10T04:49:18.509Z,26.48
2022-11-10T04:52:06.488Z,27.13
2022-11-10T04:54:54.733Z,26.50
2022-11-10T04:57:43.674Z,26.83
2022-11-10T05:00:31.025Z,25.98
2022-11-10T05:03:18.608Z,26.35
2022-11-10T05:06:06.316Z,26.15
2022-11-10T05:08:53.858Z,25.65
2022-11-10T05:11:42.372Z,26.83
2022-11-10T05:14:29.953Z,27.17
2022-11-10T05:17:17.168Z,26.50
2022-11-10T05:20:05.061Z,26.20
2022-11-10T05:23:11.279Z,28.50
2022-11-10T05:25:58.417Z,25.60
2022-11-10T05:28:47.776Z,25.73
2022-11-10T05:31:35.284Z,28.13
2022-11-10T05:34:22.150Z,28.95
2022-11-10T05:37:09.720Z,30.23
2022-11-10T05:39:56.842Z,29.50
2022-11-10T05:42:45.100Z,30.30
2022-11-10T05:45:33.869Z,28.42
2022-11-10T05:48:21.237Z,31.33
2022-11-10T05:51:08.523Z,28.38
2022-11-10T05:53:56.433Z,28.85
2022-11-10T05:56:43.612Z,27.98
2022-11-10T05:59:31.180Z,29.17
2022-11-10T06:02:19.754Z,29.38
2022-11-10T06:05:08.622Z,28.00
2022-11-10T06:07:55.805Z,27.98
2022-11-10T06:10:43.308Z,26.45
2022-11-10T06:13:30.465Z,28.45
2022-11-10T06:16:17.845Z,30.13
2022-11-10T06:19:06.841Z,27.45
2022-11-10T06:22:01.335Z,26.15
2022-11-10T06:24:50.771Z,24.77
2022-11-10T06:27:38.599Z,25.60
2022-11-10T06:30:28.531Z,27.08
2022-11-10T06:33:15.847Z,26.45
2022-11-10T06:36:04.481Z,26.90
2022-11-10T06:38:52.268Z,27.35
2022-11-10T06:41:39.338Z,27.80
2022-11-10T06:44:26.810Z,27.23
2022-11-10T06:47:13.844Z,27.95
2022-11-10T06:50:01.441Z,28.98
2022-11-10T06:52:56.287Z,26.85
2022-11-10T06:55:43.454Z,28.00
2022-11-10T06:58:30.328Z,26.38
2022-11-10T07:01:22.249Z,27.52
2022-11-10T07:04:25.393Z,26.65
2022-11-10T07:07:13.161Z,25.52
2022-11-10T07:10:06.812Z,25.13
2022-11-10T07:12:58.842Z,24.65
2022-11-10T07:15:46.692Z,25.10
2022-11-10T07:18:33.911Z,26.48
2022-11-10T07:21:20.972Z,24.88
2022-11-10T07:24:09.839Z,25.55
2022-11-10T07:26:58.791Z,25.42
2022-11-10T07:29:45.905Z,27.13
2022-11-10T07:32:32.931Z,24.27
2022-11-10T07:35:20.434Z,24.83
2022-11-10T07:38:10.583Z,23.42
2022-11-10T07:40:58.204Z,24.83
2022-11-10T07:43:46.885Z,23.42
2022-11-10T07:46:34.535Z,25.83
2022-11-10T07:49:21.567Z,23.98
2022-11-10T07:52:08.922Z,23.02
2022-11-10T07:54:55.937Z,24.25
2022-11-10T07:57:43.361Z,24.45
2022-11-10T08:00:33.109Z,23.98
2022-11-10T08:03:23.117Z,25.70
2022-11-10T08:06:10.799Z,28.38
2022-11-10T08:08:58.947Z,30.08
2022-11-10T08:11:46.222Z,28.67
2022-11-10T08:14:33.628Z,28.38
2022-11-10T08:17:21.908Z,27.08
2022-11-10T08:20:10.917Z,23.85
2022-11-10T08:23:00.150Z,23.25
2022-11-10T08:25:48.042Z,24.40
2022-11-10T08:28:35.053Z,21.65
2022-11-10T08:31:22.864Z,20.13
2022-11-10T08:34:11.368Z,20.70
2022-11-10T08:36:58.735Z,23.67
2022-11-10T08:39:46.204Z,22.08
2022-11-10T08:42:33.751Z,22.08
2022-11-10T08:45:20.642Z,22.15
2022-11-10T08:48:11.548Z,22.73
2022-11-10T08:51:01.484Z,21.10
2022-11-10T08:53:49.008Z,21.35
2022-11-10T08:56:36.133Z,19.98
2022-11-10T08:59:23.804Z,20.52
2022-11-10T09:02:11.658Z,21.73
2022-11-10T09:04:58.855Z,21.77
2022-11-10T09:07:50.768Z,19.48
2022-11-10T09:10:40.835Z,19.92
2022-11-10T09:13:31.447Z,19.52
2022-11-10T09:16:19.315Z,20.52
2022-11-10T09:19:06.457Z,20.90
2022-11-10T09:21:53.931Z,21.38
2022-11-10T09:24:42.186Z,20.27
2022-11-10T09:27:29.881Z,20.33
2022-11-10T09:30:22.177Z,19.73
2022-11-10T09:33:10.410Z,20.38
2022-11-10T09:36:02.097Z,19.27
2022-11-10T09:38:49.522Z,20.25
2022-11-10T09:41:43.847Z,21.40
2022-11-10T09:44:37.070Z,20.25
2022-11-10T09:47:56.154Z,21.15
2022-11-10T09:50:47.985Z,20.75
2022-11-10T09:53:45.930Z,21.40
2022-11-10T09:56:36.357Z,20.50
2022-11-10T09:59:29.481Z,20.75
2022-11-10T10:02:30.812Z,20.77
2022-11-10T10:05:40.383Z,20.02
2022-11-10T10:08:48.903Z,21.40
2022-11-10T10:11:54.075Z,20.20
2022-11-10T10:15:16.371Z,21.65
2022-11-10T10:18:24.173Z,22.50
2022-11-10T10:21:37.737Z,21.05
2022-11-10T10:24:30.309Z,18.80
2022-11-10T10:27:25.901Z,17.77
2022-11-10T10:30:21.316Z,19.75
2022-11-10T10:33:17.379Z,17.80
2022-11-10T10:36:15.260Z,18.58
2022-11-10T10:39:08.018Z,18.02
2022-11-10T10:41:54.749Z,19.65
2022-11-10T10:44:42.388Z,17.67
2022-11-10T10:47:40.139Z,19.75
2022-11-10T10:50:36.379Z,17.58
2022-11-10T10:53:25.355Z,17.13
2022-11-10T10:56:21.621Z,18.13
2022-11-10T10:59:22.432Z,18.58
2022-11-10T11:02:27.149Z,18.40
2022-11-10T11:05:19.517Z,16.30
2022-11-10T11:08:06.997Z,16.63
2022-11-10T11:10:54.580Z,16.17
2022-11-10T11:13:41.961Z,16.17
2022-11-10T11:16:28.751Z,15.10
2022-11-10T11:19:17.262Z,15.10
2022-11-10T11:22:43.807Z,16.05
2022-11-10T11:25:37.555Z,17.33
2022-11-10T11:28:39.244Z,16.88
2022-11-10T11:31:45.666Z,15.82
2022-11-10T11:34:44.300Z,14.23
2022-11-10T11:37:48.498Z,14.93
2022-11-10T11:40:56.125Z,15.18
2022-11-10T11:44:32.591Z,14.70
2022-11-10T11:47:42.318Z,15.25
2022-11-10T11:50:38.086Z,15.15
2022-11-10T11:53:48.154Z,14.52
2022-11-10T11:56:42.846Z,14.05
2022-11-10T12:00:01.439Z,12.65
2022-11-10T12:03:41.403Z,13.20
2022-11-10T12:06:58.735Z,13.43
2022-11-10T12:09:51.791Z,12.82
2022-11-10T12:13:19.301Z,13.40
2022-11-10T12:16:18.810Z,13.68
2022-11-10T12:19:24.357Z,12.25
2022-11-10T12:22:25.471Z,12.43
2022-11-10T12:25:27.781Z,11.90
2022-11-10T12:28:22.627Z,13.85
2022-11-10T12:31:18.559Z,12.38
2022-11-10T12:34:15.738Z,11.48
2022-11-10T12:37:09.242Z,12.65
2022-11-10T12:40:04.800Z,12.27
2022-11-10T12:43:01.022Z,12.15
2022-11-10T12:45:57.191Z,12.60
2022-11-10T12:49:08.943Z,12.68
2022-11-10T12:52:07.687Z,12.35
2022-11-10T12:54:55.021Z,12.52
2022-11-10T12:57:44.895Z,13.30
2022-11-10T13:00:40.403Z,13.48
2022-11-10T13:03:32.473Z,11.85
2022-11-10T13:06:29.821Z,11.75
2022-11-10T13:10:56.263Z,12.05
2022-11-10T13:13:48.233Z,11.95
2022-11-10T13:16:54.072Z,11.48
2022-11-10T13:19:55.895Z,13.20
2022-11-10T13:22:44.891Z,12.65
2022-11-10T13:25:58.766Z,11.73
2022-11-10T13:29:02.713Z,13.07
2022-11-10T13:31:56.788Z,11.98
2022-11-10T13:34:44.830Z,11.55
2022-11-10T13:37:52.685Z,13.13
2022-11-10T13:40:41.059Z,11.98
2022-11-10T13:43:29.048Z,11.32
2022-11-10T13:46:16.883Z,12.07
2022-11-10T13:49:29.108Z,12.10
2022-11-10T13:52:20.893Z,12.52
2022-11-10T13:55:29.316Z,11.35
2022-11-10T13:58:26.164Z,12.18
2022-11-10T14:01:32.003Z,12.50
2022-11-10T14:04:42.138Z,11.35
2022-11-10T14:07:36.460Z,10.55
2022-11-10T14:10:39.832Z,11.75
2022-11-10T14:15:06.099Z,12.07
2022-11-10T14:17:57.176Z,10.50
2022-11-10T14:20:48.000Z,10.48
2022-11-10T14:23:46.866Z,11.27
2022-11-10T14:28:13.408Z,10.93
2022-11-10T14:31:01.204Z,10.18
2022-11-10T14:33:57.205Z,10.77
2022-11-10T14:36:55.447Z,10.10
2022-11-10T14:39:43.116Z,11.32
2022-11-10T14:42:34.588Z,11.07
2022-11-10T14:45:25.052Z,11.52
2022-11-10T14:48:21.769Z,12.07
2022-11-10T14:51:16.099Z,12.57
2022-11-10T14:54:04.923Z,11.82
2022-11-10T14:56:52.423Z,10.60
2022-11-10T14:59:41.133Z,10.25
2022-11-10T15:02:28.806Z,10.60
2022-11-10T15:05:17.246Z,10.68
2022-11-10T15:08:07.092Z,10.10
2022-11-10T15:10:56.381Z,11.05
2022-11-10T15:13:43.904Z,10.15
2022-11-10T15:16:33.239Z,10.90
2022-11-10T15:19:29.055Z,11.60
2022-11-10T15:22:20.925Z,12.43
2022-11-10T15:25:18.526Z,11.13
2022-11-10T15:28:24.464Z,12.82
2022-11-10T15:31:23.534Z,13.02
2022-11-10T15:34:42.071Z,13.65
2022-11-10T15:42:22.579Z,12.52
2022-11-10T15:45:11.151Z,11.68
2022-11-10T15:47:58.553Z,12.40
2022-11-10T15:50:50.222Z,12.57
2022-11-10T15:53:43.654Z,12.77
2022-11-10T15:56:30.964Z,12.23
2022-11-10T15:59:18.706Z,12.50
2022-11-10T16:02:19.700Z,12.15
2022-11-10T16:05:13.237Z,12.50
2022-11-10T16:08:00.107Z,11.85
2022-11-10T16:10:51.075Z,11.32
2022-11-10T16:13:38.507Z,12.52
2022-11-10T16:21:20.842Z,11.68
2022-11-10T16:24:08.495Z,12.77
2022-11-10T16:26:56.168Z,13.00
2022-11-10T16:29:44.280Z,12.57
2022-11-10T16:32:31.230Z,12.32
2022-11-10T16:35:18.747Z,12.45
2022-11-10T16:38:19.804Z,11.63
2022-11-10T16:41:14.654Z,14.13
2022-11-10T16:44:02.158Z,12.85
2022-11-10T16:46:56.095Z,15.15
2022-11-10T16:49:45.978Z,13.32
2022-11-10T16:52:33.432Z,15.80
2022-11-10T16:55:21.905Z,14.80
2022-11-10T16:58:09.597Z,15.57
2022-11-10T17:01:00.714Z,14.05
2022-11-10T17:03:52.902Z,14.57
2022-11-10T17:06:39.969Z,12.45
2022-11-10T17:09:27.449Z,14.45
2022-11-10T17:12:17.417Z,13.35
2022-11-10T17:15:05.785Z,14.60
2022-11-10T17:17:58.813Z,13.82
2022-11-10T17:20:52.316Z,12.05
2022-11-10T17:23:40.685Z,13.25
2022-11-10T17:26:30.352Z,12.50
2022-11-10T17:29:22.015Z,13.60
2022-11-10T17:32:09.312Z,14.85
2022-11-10T17:34:56.846Z,11.38
2022-11-10T17:37:50.189Z,12.32
2022-11-10T17:40:37.598Z,12.98
2022-11-10T17:43:26.016Z,11.35
2022-11-10T17:46:15.727Z,11.90
2022-11-10T17:49:03.557Z,12.48
2022-11-10T17:51:50.926Z,11.43
2022-11-10T17:54:38.361Z,11.98
2022-11-10T17:57:25.831Z,11.98
2022-11-10T18:05:06.249Z,11.60
2022-11-10T18:09:36.721Z,11.85
2022-11-10T18:12:27.762Z,12.93
2022-11-10T18:15:17.601Z,12.95
2022-11-10T18:18:04.622Z,11.05
2022-11-10T18:20:53.470Z,13.10
2022-11-10T18:23:40.553Z,12.35
2022-11-10T18:26:27.992Z,13.77
2022-11-10T18:29:15.000Z,13.45
2022-11-10T18:32:02.609Z,13.75
2022-11-10T18:34:50.117Z,12.30
2022-11-10T18:42:29.892Z,12.35
2022-11-10T18:45:17.611Z,12.80
2022-11-10T18:48:05.777Z,13.48
2022-11-10T18:50:53.308Z,12.48
2022-11-10T18:53:40.300Z,11.95
2022-11-10T18:56:27.854Z,12.77
2022-11-10T18:59:16.210Z,12.10
2022-11-10T19:02:03.788Z,12.75
2022-11-10T19:09:43.217Z,12.00
2022-11-10T19:12:31.656Z,12.30
2022-11-10T19:15:20.562Z,11.98
2022-11-10T19:18:07.566Z,12.27
2022-11-10T19:20:55.079Z,13.23
2022-11-10T19:23:42.795Z,13.23
2022-11-10T19:26:32.742Z,12.55
2022-11-10T19:29:20.279Z,13.02
2022-11-10T19:32:09.139Z,12.85
2022-11-10T19:39:47.173Z,13.45
2022-11-10T19:42:34.898Z,13.70
2022-11-10T19:45:21.990Z,13.30
2022-11-10T19:48:10.368Z,13.52
2022-11-10T19:51:00.684Z,14.30
2022-11-10T19:53:51.003Z,14.27
2022-11-10T19:56:38.156Z,15.02
2022-11-10T19:59:25.087Z,13.93
2022-11-10T20:02:13.643Z,15.55
2022-11-10T20:05:15.970Z,15.23
2022-11-10T20:08:12.240Z,15.13
2022-11-10T20:11:05.388Z,13.98
2022-11-10T20:13:55.525Z,13.73
2022-11-10T20:16:42.872Z,13.15
2022-11-10T20:19:30.393Z,13.60
2022-11-10T20:22:18.759Z,13.90
2022-11-10T20:25:06.996Z,13.68
2022-11-10T20:27:54.795Z,14.80
2022-11-10T20:30:45.503Z,14.80
2022-11-10T20:33:36.895Z,14.65
2022-11-10T20:36:27.408Z,16.00
2022-11-10T20:39:15.751Z,15.88
2022-11-10T20:42:03.331Z,15.00
2022-11-10T20:44:50.271Z,14.77
2022-11-10T20:47:37.697Z,16.60
2022-11-10T20:50:25.536Z,16.25
2022-11-10T20:53:13.234Z,17.80
2022-11-10T20:56:03.343Z,15.55
2022-11-10T20:58:52.448Z,17.40
2022-11-10T21:01:39.460Z,15.88
2022-11-10T21:04:27.011Z,16.67
2022-11-10T21:07:14.049Z,16.90
2022-11-10T21:10:01.889Z,15.93
2022-11-10T21:12:50.446Z,17.30
2022-11-10T21:15:40.215Z,16.00
2022-11-10T21:18:31.006Z,16.00
2022-11-10T21:21:23.916Z,15.20
2022-11-10T21:24:12.078Z,16.48
2022-11-10T21:26:59.883Z,16.17
2022-11-10T21:29:48.393Z,14.88
2022-11-10T21:32:35.877Z,15.18
2022-11-10T21:35:23.282Z,14.38
2022-11-10T21:38:13.415Z,14.95
2022-11-10T21:41:01.396Z,14.43
2022-11-10T21:43:48.630Z,15.25
2022-11-10T21:51:27.730Z,14.57
2022-11-10T21:54:14.854Z,15.35
2022-11-10T21:57:02.426Z,15.60
2022-11-10T21:59:49.752Z,14.68
2022-11-10T22:02:37.268Z,14.75
2022-11-10T22:05:24.678Z,14.60
2022-11-10T22:08:14.784Z,14.50
2022-11-10T22:11:21.108Z,14.30
2022-11-10T22:14:31.076Z,16.08
2022-11-10T22:17:36.072Z,16.23
2022-11-10T22:20:23.261Z,17.42
2022-11-10T22:23:10.379Z,18.33
2022-11-10T22:25:59.259Z,17.20
2022-11-10T22:28:47.395Z,17.17
2022-11-10T22:31:35.213Z,17.40
2022-11-10T22:34:23.002Z,17.63
2022-11-10T22:37:10.763Z,17.80
2022-11-10T22:40:15.336Z,17.05
2022-11-10T22:43:21.423Z,17.00
2022-11-10T22:46:08.743Z,16.85
2022-11-10T22:48:56.071Z,16.45
2022-11-10T22:51:46.500Z,16.83
2022-11-10T22:54:34.349Z,16.42
2022-11-10T22:57:21.454Z,16.73
2022-11-10T23:00:12.610Z,15.82
2022-11-10T23:02:59.915Z,16.58
2022-11-10T23:05:56.216Z,15.95
2022-11-10T23:08:44.398Z,16.23
2022-11-10T23:11:33.506Z,15.88
2022-11-10T23:14:20.885Z,17.08
2022-11-10T23:21:59.785Z,15.70
2022-11-10T23:24:48.475Z,16.02
2022-11-10T23:27:37.888Z,16.63
2022-11-10T23:30:25.299Z,16.67
2022-11-10T23:33:12.647Z,15.43
2022-11-10T23:35:59.596Z,16.75
2022-11-10T23:38:49.376Z,15.25
2022-11-10T23:41:36.571Z,16.23
2022-11-10T23:44:24.312Z,15.38
2022-11-10T23:47:11.878Z,16.35
2022-11-10T23:59:41.712Z,17.15
